sensor_id;sensor_type;location;lat;lon;timestamp;temperature;humidity
782;DHT22;374;52.568;13.402;2022-12-08T00:01:40;2.50;99.90
782;DHT22;374;52.568;13.402;2022-12-08T00:04:06;2.50;99.90
782;DHT22;374;52.568;13.402;2022-12-08T00:06:37;2.50;99.90
782;DHT22;374;52.568;13.402;2022-12-08T00:09:34;2.50;99.90
782;DHT22;374;52.568;13.402;2022-12-08T00:12:02;2.50;99.90
782;DHT22;374;52.568;13.402;2022-12-08T00:14:31;2.50;99.90
782;DHT22;374;52.568;13.402;2022-12-08T00:16:57;2.60;99.90
782;DHT22;374;52.568;13.402;2022-12-08T00:19:24;2.50;99.90
782;DHT22;374;52.568;13.402;2022-12-08T00:21:50;2.50;99.90
782;DHT22;374;52.568;13.402;2022-12-08T00:24:16;2.50;99.90
782;DHT22;374;52.568;13.402;2022-12-08T00:26:42;2.50;99.90
782;DHT22;374;52.568;13.402;2022-12-08T00:29:07;2.50;99.90
782;DHT22;374;52.568;13.402;2022-12-08T00:31:33;2.60;99.90
782;DHT22;374;52.568;13.402;2022-12-08T00:33:59;2.60;99.90
782;DHT22;374;52.568;13.402;2022-12-08T00:36:25;2.50;99.90
782;DHT22;374;52.568;13.402;2022-12-08T00:38:50;2.60;99.90
782;DHT22;374;52.568;13.402;2022-12-08T00:41:18;2.60;99.90
782;DHT22;374;52.568;13.402;2022-12-08T00:44:09;2.60;99.90
782;DHT22;374;52.568;13.402;2022-12-08T00:46:35;2.60;99.90
782;DHT22;374;52.568;13.402;2022-12-08T00:49:01;2.60;99.90
782;DHT22;374;52.568;13.402;2022-12-08T00:51:26;2.60;99.90
782;DHT22;374;52.568;13.402;2022-12-08T00:53:52;2.60;99.90
782;DHT22;374;52.568;13.402;2022-12-08T00:56:17;2.60;99.90
782;DHT22;374;52.568;13.402;2022-12-08T00:58:43;2.60;99.90
782;DHT22;374;52.568;13.402;2022-12-08T01:01:13;2.60;99.90
782;DHT22;374;52.568;13.402;2022-12-08T01:03:39;2.60;99.90
782;DHT22;374;52.568;13.402;2022-12-08T01:06:06;2.60;99.90
782;DHT22;374;52.568;13.402;2022-12-08T01:08:32;2.60;99.90
782;DHT22;374;52.568;13.402;2022-12-08T01:11:09;2.60;99.90
782;DHT22;374;52.568;13.402;2022-12-08T01:13:35;2.60;99.90
782;DHT22;374;52.568;13.402;2022-12-08T01:16:01;2.60;99.90
782;DHT22;374;52.568;13.402;2022-12-08T01:18:28;2.60;99.90
782;DHT22;374;52.568;13.402;2022-12-08T01:20:53;2.60;99.90
782;DHT22;374;52.568;13.402;2022-12-08T01:23:19;2.70;99.90
782;DHT22;374;52.568;13.402;2022-12-08T01:25:45;2.60;99.90
782;DHT22;374;52.568;13.402;2022-12-08T01:28:10;2.70;99.90
782;DHT22;374;52.568;13.402;2022-12-08T01:30:39;2.70;99.90
782;DHT22;374;52.568;13.402;2022-12-08T01:33:05;2.60;99.90
782;DHT22;374;52.568;13.402;2022-12-08T01:35:30;2.60;99.90
782;DHT22;374;52.568;13.402;2022-12-08T01:37:57;2.70;99.90
782;DHT22;374;52.568;13.402;2022-12-08T01:40:23;2.70;99.90
782;DHT22;374;52.568;13.402;2022-12-08T01:42:49;2.70;99.90
782;DHT22;374;52.568;13.402;2022-12-08T01:45:34;2.70;99.90
782;DHT22;374;52.568;13.402;2022-12-08T01:48:06;2.70;99.90
782;DHT22;374;52.568;13.402;2022-12-08T01:50:34;2.70;99.90
782;DHT22;374;52.568;13.402;2022-12-08T01:53:11;2.70;99.90
782;DHT22;374;52.568;13.402;2022-12-08T01:55:41;2.70;99.90
782;DHT22;374;52.568;13.402;2022-12-08T01:58:27;2.60;99.90
782;DHT22;374;52.568;13.402;2022-12-08T02:00:55;2.60;99.90
782;DHT22;374;52.568;13.402;2022-12-08T02:03:30;2.60;99.90
782;DHT22;374;52.568;13.402;2022-12-08T02:05:58;2.60;99.90
782;DHT22;374;52.568;13.402;2022-12-08T02:08:24;2.60;99.90
782;DHT22;374;52.568;13.402;2022-12-08T02:10:50;2.60;99.90
782;DHT22;374;52.568;13.402;2022-12-08T02:13:18;2.60;99.90
782;DHT22;374;52.568;13.402;2022-12-08T02:19:06;2.60;99.90
782;DHT22;374;52.568;13.402;2022-12-08T02:38:00;2.50;99.90
782;DHT22;374;52.568;13.402;2022-12-08T02:40:38;2.50;99.90
782;DHT22;374;52.568;13.402;2022-12-08T02:43:13;2.50;99.90
782;DHT22;374;52.568;13.402;2022-12-08T02:46:04;2.50;99.90
782;DHT22;374;52.568;13.402;2022-12-08T02:48:28;2.50;99.90
782;DHT22;374;52.568;13.402;2022-12-08T02:50:54;2.50;99.90
782;DHT22;374;52.568;13.402;2022-12-08T02:53:20;2.50;99.90
782;DHT22;374;52.568;13.402;2022-12-08T02:58:45;2.40;99.90
782;DHT22;374;52.568;13.402;2022-12-08T03:01:45;2.40;99.90
782;DHT22;374;52.568;13.402;2022-12-08T03:04:42;2.40;99.90
782;DHT22;374;52.568;13.402;2022-12-08T03:07:34;2.40;99.90
782;DHT22;374;52.568;13.402;2022-12-08T03:10:09;2.40;99.90
782;DHT22;374;52.568;13.402;2022-12-08T03:12:49;2.40;99.90
782;DHT22;374;52.568;13.402;2022-12-08T03:15:18;2.40;99.90
782;DHT22;374;52.568;13.402;2022-12-08T03:17:49;2.40;99.90
782;DHT22;374;52.568;13.402;2022-12-08T03:20:19;2.40;99.90
782;DHT22;374;52.568;13.402;2022-12-08T03:22:46;2.40;99.90
782;DHT22;374;52.568;13.402;2022-12-08T03:25:14;2.40;99.90
782;DHT22;374;52.568;13.402;2022-12-08T03:27:42;2.40;99.90
782;DHT22;374;52.568;13.402;2022-12-08T03:30:08;2.40;99.90
782;DHT22;374;52.568;13.402;2022-12-08T03:32:50;2.40;99.90
782;DHT22;374;52.568;13.402;2022-12-08T03:35:20;2.40;99.90
782;DHT22;374;52.568;13.402;2022-12-08T03:37:47;2.40;99.90
782;DHT22;374;52.568;13.402;2022-12-08T03:40:15;2.50;99.90
782;DHT22;374;52.568;13.402;2022-12-08T03:42:40;2.40;99.90
782;DHT22;374;52.568;13.402;2022-12-08T03:45:06;2.40;99.90
782;DHT22;374;52.568;13.402;2022-12-08T03:47:31;2.50;99.90
782;DHT22;374;52.568;13.402;2022-12-08T03:49:57;2.40;99.90
782;DHT22;374;52.568;13.402;2022-12-08T03:52:22;2.40;99.90
782;DHT22;374;52.568;13.402;2022-12-08T03:54:48;2.50;99.90
782;DHT22;374;52.568;13.402;2022-12-08T03:57:13;2.50;99.90
782;DHT22;374;52.568;13.402;2022-12-08T03:59:39;2.40;99.90
782;DHT22;374;52.568;13.402;2022-12-08T04:02:04;2.50;99.90
782;DHT22;374;52.568;13.402;2022-12-08T04:04:30;2.50;99.90
782;DHT22;374;52.568;13.402;2022-12-08T04:06:55;2.40;99.90
782;DHT22;374;52.568;13.402;2022-12-08T04:09:21;2.50;99.90
782;DHT22;374;52.568;13.402;2022-12-08T04:11:47;2.50;99.90
782;DHT22;374;52.568;13.402;2022-12-08T04:14:12;2.50;99.90
782;DHT22;374;52.568;13.402;2022-12-08T04:16:38;2.50;99.90
782;DHT22;374;52.568;13.402;2022-12-08T04:19:06;2.40;99.90
782;DHT22;374;52.568;13.402;2022-12-08T04:21:32;2.40;99.90
782;DHT22;374;52.568;13.402;2022-12-08T04:23:58;2.60;99.90
782;DHT22;374;52.568;13.402;2022-12-08T04:26:23;2.50;99.90
782;DHT22;374;52.568;13.402;2022-12-08T04:28:49;2.60;99.90
782;DHT22;374;52.568;13.402;2022-12-08T04:31:14;2.60;99.90
782;DHT22;374;52.568;13.402;2022-12-08T04:33:40;2.60;99.90
782;DHT22;374;52.568;13.402;2022-12-08T04:36:06;2.60;99.90
782;DHT22;374;52.568;13.402;2022-12-08T04:38:32;2.60;99.90
782;DHT22;374;52.568;13.402;2022-12-08T04:40:58;2.40;99.90
782;DHT22;374;52.568;13.402;2022-12-08T04:43:24;2.40;99.90
782;DHT22;374;52.568;13.402;2022-12-08T04:45:50;2.30;99.90
782;DHT22;374;52.568;13.402;2022-12-08T04:48:15;2.30;99.90
782;DHT22;374;52.568;13.402;2022-12-08T04:50:43;2.30;99.90
782;DHT22;374;52.568;13.402;2022-12-08T04:53:09;2.40;99.90
782;DHT22;374;52.568;13.402;2022-12-08T04:55:44;2.30;99.90
782;DHT22;374;52.568;13.402;2022-12-08T04:58:14;2.30;99.90
782;DHT22;374;52.568;13.402;2022-12-08T05:00:40;2.40;99.90
782;DHT22;374;52.568;13.402;2022-12-08T05:03:06;2.40;99.90
782;DHT22;374;52.568;13.402;2022-12-08T05:05:32;2.20;99.90
782;DHT22;374;52.568;13.402;2022-12-08T05:07:58;2.50;99.90
782;DHT22;374;52.568;13.402;2022-12-08T05:10:23;2.30;99.90
782;DHT22;374;52.568;13.402;2022-12-08T05:12:49;2.50;99.90
782;DHT22;374;52.568;13.402;2022-12-08T05:15:14;2.50;99.90
782;DHT22;374;52.568;13.402;2022-12-08T05:17:39;2.40;99.90
782;DHT22;374;52.568;13.402;2022-12-08T05:20:05;2.50;99.90
782;DHT22;374;52.568;13.402;2022-12-08T05:22:31;2.50;99.90
782;DHT22;374;52.568;13.402;2022-12-08T05:24:56;2.40;99.90
782;DHT22;374;52.568;13.402;2022-12-08T05:27:22;2.60;99.90
782;DHT22;374;52.568;13.402;2022-12-08T05:29:47;2.40;99.90
782;DHT22;374;52.568;13.402;2022-12-08T05:32:16;2.40;99.90
782;DHT22;374;52.568;13.402;2022-12-08T05:34:41;2.40;99.90
782;DHT22;374;52.568;13.402;2022-12-08T05:37:07;2.40;99.90
782;DHT22;374;52.568;13.402;2022-12-08T05:39:32;2.40;99.90
782;DHT22;374;52.568;13.402;2022-12-08T05:41:58;2.50;99.90
782;DHT22;374;52.568;13.402;2022-12-08T05:44:24;2.50;99.90
782;DHT22;374;52.568;13.402;2022-12-08T05:46:49;2.60;99.90
782;DHT22;374;52.568;13.402;2022-12-08T05:49:15;2.60;99.90
782;DHT22;374;52.568;13.402;2022-12-08T05:51:41;2.50;99.90
782;DHT22;374;52.568;13.402;2022-12-08T05:54:06;2.50;99.90
782;DHT22;374;52.568;13.402;2022-12-08T05:56:34;2.50;99.90
782;DHT22;374;52.568;13.402;2022-12-08T05:58:59;2.50;99.90
782;DHT22;374;52.568;13.402;2022-12-08T06:01:29;2.60;99.90
782;DHT22;374;52.568;13.402;2022-12-08T06:03:56;2.60;99.90
782;DHT22;374;52.568;13.402;2022-12-08T06:06:22;2.50;99.90
782;DHT22;374;52.568;13.402;2022-12-08T06:08:48;2.50;99.90
782;DHT22;374;52.568;13.402;2022-12-08T06:11:24;2.60;99.90
782;DHT22;374;52.568;13.402;2022-12-08T06:13:50;2.70;99.90
782;DHT22;374;52.568;13.402;2022-12-08T06:16:16;2.50;99.90
782;DHT22;374;52.568;13.402;2022-12-08T06:18:42;2.70;99.90
782;DHT22;374;52.568;13.402;2022-12-08T06:21:10;2.70;99.90
782;DHT22;374;52.568;13.402;2022-12-08T06:23:36;2.50;99.90
782;DHT22;374;52.568;13.402;2022-12-08T06:26:08;2.60;99.90
782;DHT22;374;52.568;13.402;2022-12-08T06:28:35;2.50;99.90
782;DHT22;374;52.568;13.402;2022-12-08T06:31:06;2.70;99.90
782;DHT22;374;52.568;13.402;2022-12-08T06:33:32;2.60;99.90
782;DHT22;374;52.568;13.402;2022-12-08T06:35:57;2.50;99.90
782;DHT22;374;52.568;13.402;2022-12-08T06:38:23;2.70;99.90
782;DHT22;374;52.568;13.402;2022-12-08T06:40:53;2.80;99.90
782;DHT22;374;52.568;13.402;2022-12-08T06:43:19;2.70;99.90
782;DHT22;374;52.568;13.402;2022-12-08T06:45:44;2.60;99.90
782;DHT22;374;52.568;13.402;2022-12-08T06:48:10;2.60;99.90
782;DHT22;374;52.568;13.402;2022-12-08T06:50:35;2.60;99.90
782;DHT22;374;52.568;13.402;2022-12-08T06:53:01;2.80;99.90
782;DHT22;374;52.568;13.402;2022-12-08T06:55:26;2.80;99.90
782;DHT22;374;52.568;13.402;2022-12-08T06:57:52;2.70;99.90
782;DHT22;374;52.568;13.402;2022-12-08T07:00:18;2.70;99.90
782;DHT22;374;52.568;13.402;2022-12-08T07:02:43;2.90;99.90
782;DHT22;374;52.568;13.402;2022-12-08T07:05:09;2.90;99.90
782;DHT22;374;52.568;13.402;2022-12-08T07:07:34;2.80;99.90
782;DHT22;374;52.568;13.402;2022-12-08T07:10:00;2.90;99.90
782;DHT22;374;52.568;13.402;2022-12-08T07:12:25;2.70;99.90
782;DHT22;374;52.568;13.402;2022-12-08T07:14:51;2.80;99.90
782;DHT22;374;52.568;13.402;2022-12-08T07:17:16;2.70;99.90
782;DHT22;374;52.568;13.402;2022-12-08T07:19:42;2.70;99.90
782;DHT22;374;52.568;13.402;2022-12-08T07:22:07;2.70;99.90
782;DHT22;374;52.568;13.402;2022-12-08T07:24:32;3.00;99.90
782;DHT22;374;52.568;13.402;2022-12-08T07:26:58;2.90;99.90
782;DHT22;374;52.568;13.402;2022-12-08T07:29:23;3.00;99.90
782;DHT22;374;52.568;13.402;2022-12-08T07:31:49;2.90;99.90
782;DHT22;374;52.568;13.402;2022-12-08T07:34:14;3.00;99.90
782;DHT22;374;52.568;13.402;2022-12-08T07:36:40;3.00;99.90
782;DHT22;374;52.568;13.402;2022-12-08T07:39:05;2.90;99.90
782;DHT22;374;52.568;13.402;2022-12-08T07:41:31;3.00;99.90
782;DHT22;374;52.568;13.402;2022-12-08T07:43:57;2.80;99.90
782;DHT22;374;52.568;13.402;2022-12-08T07:46:24;2.80;99.90
782;DHT22;374;52.568;13.402;2022-12-08T07:48:51;3.00;99.90
782;DHT22;374;52.568;13.402;2022-12-08T07:51:17;3.00;99.90
782;DHT22;374;52.568;13.402;2022-12-08T07:53:44;2.90;99.90
782;DHT22;374;52.568;13.402;2022-12-08T07:56:11;3.00;99.90
782;DHT22;374;52.568;13.402;2022-12-08T07:58:37;2.80;99.90
782;DHT22;374;52.568;13.402;2022-12-08T08:01:03;3.00;99.90
782;DHT22;374;52.568;13.402;2022-12-08T08:03:29;2.90;99.90
782;DHT22;374;52.568;13.402;2022-12-08T08:06:02;3.00;99.90
782;DHT22;374;52.568;13.402;2022-12-08T08:08:27;2.80;99.90
782;DHT22;374;52.568;13.402;2022-12-08T08:10:53;3.00;99.90
782;DHT22;374;52.568;13.402;2022-12-08T08:13:18;3.10;99.90
782;DHT22;374;52.568;13.402;2022-12-08T08:15:44;3.00;99.90
782;DHT22;374;52.568;13.402;2022-12-08T08:18:09;3.10;99.90
782;DHT22;374;52.568;13.402;2022-12-08T08:20:35;3.20;99.90
782;DHT22;374;52.568;13.402;2022-12-08T08:23:00;3.20;99.90
782;DHT22;374;52.568;13.402;2022-12-08T08:25:26;3.10;99.90
782;DHT22;374;52.568;13.402;2022-12-08T08:27:51;3.10;99.90
782;DHT22;374;52.568;13.402;2022-12-08T08:30:18;3.10;99.90
782;DHT22;374;52.568;13.402;2022-12-08T08:32:43;3.00;99.90
782;DHT22;374;52.568;13.402;2022-12-08T08:35:09;3.20;99.90
782;DHT22;374;52.568;13.402;2022-12-08T08:37:35;3.10;99.90
782;DHT22;374;52.568;13.402;2022-12-08T08:40:00;3.10;99.90
782;DHT22;374;52.568;13.402;2022-12-08T08:42:26;3.10;99.90
782;DHT22;374;52.568;13.402;2022-12-08T08:44:51;3.30;99.90
782;DHT22;374;52.568;13.402;2022-12-08T08:47:17;3.20;99.90
782;DHT22;374;52.568;13.402;2022-12-08T08:49:42;3.30;99.90
782;DHT22;374;52.568;13.402;2022-12-08T08:52:08;3.10;99.90
782;DHT22;374;52.568;13.402;2022-12-08T08:54:33;3.30;99.90
782;DHT22;374;52.568;13.402;2022-12-08T08:57:00;3.30;99.90
782;DHT22;374;52.568;13.402;2022-12-08T08:59:26;3.30;99.90
782;DHT22;374;52.568;13.402;2022-12-08T09:01:52;3.30;99.90
782;DHT22;374;52.568;13.402;2022-12-08T09:04:19;3.20;99.90
782;DHT22;374;52.568;13.402;2022-12-08T09:06:45;3.40;99.90
782;DHT22;374;52.568;13.402;2022-12-08T09:09:11;3.40;99.90
782;DHT22;374;52.568;13.402;2022-12-08T09:11:36;3.40;99.90
782;DHT22;374;52.568;13.402;2022-12-08T09:14:02;3.30;99.90
782;DHT22;374;52.568;13.402;2022-12-08T09:16:28;3.40;99.90
782;DHT22;374;52.568;13.402;2022-12-08T09:18:54;3.30;99.90
782;DHT22;374;52.568;13.402;2022-12-08T09:21:22;3.50;99.90
782;DHT22;374;52.568;13.402;2022-12-08T09:23:49;3.30;99.90
782;DHT22;374;52.568;13.402;2022-12-08T09:26:15;3.40;99.90
782;DHT22;374;52.568;13.402;2022-12-08T09:28:40;3.50;99.90
782;DHT22;374;52.568;13.402;2022-12-08T09:31:11;3.30;99.90
782;DHT22;374;52.568;13.402;2022-12-08T09:33:38;3.50;99.90
782;DHT22;374;52.568;13.402;2022-12-08T09:36:03;3.40;99.90
782;DHT22;374;52.568;13.402;2022-12-08T09:38:29;3.50;99.90
782;DHT22;374;52.568;13.402;2022-12-08T09:40:55;3.50;99.90
782;DHT22;374;52.568;13.402;2022-12-08T09:45:58;3.60;99.90
782;DHT22;374;52.568;13.402;2022-12-08T09:48:37;3.50;99.90
782;DHT22;374;52.568;13.402;2022-12-08T09:51:04;3.60;99.90
782;DHT22;374;52.568;13.402;2022-12-08T09:53:34;3.50;99.90
782;DHT22;374;52.568;13.402;2022-12-08T09:56:03;3.50;99.90
782;DHT22;374;52.568;13.402;2022-12-08T09:58:51;3.50;99.90
782;DHT22;374;52.568;13.402;2022-12-08T10:01:23;3.60;99.90
782;DHT22;374;52.568;13.402;2022-12-08T10:03:51;3.40;99.90
782;DHT22;374;52.568;13.402;2022-12-08T10:06:32;3.60;99.90
782;DHT22;374;52.568;13.402;2022-12-08T10:11:52;3.60;99.90
782;DHT22;374;52.568;13.402;2022-12-08T10:14:36;3.50;99.90
782;DHT22;374;52.568;13.402;2022-12-08T10:17:23;3.60;99.90
782;DHT22;374;52.568;13.402;2022-12-08T10:19:56;3.50;99.90
782;DHT22;374;52.568;13.402;2022-12-08T10:22:27;3.50;99.90
782;DHT22;374;52.568;13.402;2022-12-08T10:25:03;3.50;99.90
782;DHT22;374;52.568;13.402;2022-12-08T10:27:30;3.50;99.90
782;DHT22;374;52.568;13.402;2022-12-08T10:29:59;3.50;99.90
782;DHT22;374;52.568;13.402;2022-12-08T10:32:32;3.50;99.90
782;DHT22;374;52.568;13.402;2022-12-08T10:35:05;3.70;99.90
782;DHT22;374;52.568;13.402;2022-12-08T10:37:32;3.80;99.90
782;DHT22;374;52.568;13.402;2022-12-08T10:40:11;3.70;99.90
782;DHT22;374;52.568;13.402;2022-12-08T10:42:40;3.70;99.90
782;DHT22;374;52.568;13.402;2022-12-08T10:45:14;3.80;99.90
782;DHT22;374;52.568;13.402;2022-12-08T10:47:42;3.80;99.90
782;DHT22;374;52.568;13.402;2022-12-08T10:50:16;3.80;99.90
782;DHT22;374;52.568;13.402;2022-12-08T10:52:59;3.60;99.90
782;DHT22;374;52.568;13.402;2022-12-08T10:55:26;3.60;99.90
782;DHT22;374;52.568;13.402;2022-12-08T10:57:52;3.80;99.90
782;DHT22;374;52.568;13.402;2022-12-08T11:00:21;3.90;99.90
782;DHT22;374;52.568;13.402;2022-12-08T11:03:18;3.80;99.90
782;DHT22;374;52.568;13.402;2022-12-08T11:05:45;3.80;99.90
782;DHT22;374;52.568;13.402;2022-12-08T11:08:11;3.70;99.90
782;DHT22;374;52.568;13.402;2022-12-08T11:10:43;3.80;99.90
782;DHT22;374;52.568;13.402;2022-12-08T11:13:22;3.90;99.90
782;DHT22;374;52.568;13.402;2022-12-08T11:15:48;3.70;99.90
782;DHT22;374;52.568;13.402;2022-12-08T11:18:27;3.90;99.90
782;DHT22;374;52.568;13.402;2022-12-08T11:21:00;3.90;99.90
782;DHT22;374;52.568;13.402;2022-12-08T11:23:28;3.70;99.90
782;DHT22;374;52.568;13.402;2022-12-08T11:25:56;4.00;99.90
782;DHT22;374;52.568;13.402;2022-12-08T11:28:23;3.80;99.90
782;DHT22;374;52.568;13.402;2022-12-08T11:31:16;3.80;99.90
782;DHT22;374;52.568;13.402;2022-12-08T11:33:43;3.80;99.90
782;DHT22;374;52.568;13.402;2022-12-08T11:36:11;3.70;99.90
782;DHT22;374;52.568;13.402;2022-12-08T11:38:43;3.70;99.90
782;DHT22;374;52.568;13.402;2022-12-08T11:41:13;3.90;99.90
782;DHT22;374;52.568;13.402;2022-12-08T11:43:47;3.80;99.90
782;DHT22;374;52.568;13.402;2022-12-08T11:46:20;3.90;99.90
782;DHT22;374;52.568;13.402;2022-12-08T11:49:01;3.80;99.90
782;DHT22;374;52.568;13.402;2022-12-08T11:56:58;4.00;99.90
782;DHT22;374;52.568;13.402;2022-12-08T11:59:36;3.80;99.90
782;DHT22;374;52.568;13.402;2022-12-08T12:02:15;3.80;99.90
782;DHT22;374;52.568;13.402;2022-12-08T12:04:52;3.90;99.90
782;DHT22;374;52.568;13.402;2022-12-08T12:07:32;4.00;99.90
782;DHT22;374;52.568;13.402;2022-12-08T12:10:06;4.00;99.90
782;DHT22;374;52.568;13.402;2022-12-08T12:21:19;3.80;99.90
782;DHT22;374;52.568;13.402;2022-12-08T12:24:05;4.00;99.90
782;DHT22;374;52.568;13.402;2022-12-08T12:26:34;4.10;99.90
782;DHT22;374;52.568;13.402;2022-12-08T12:29:09;4.00;99.90
782;DHT22;374;52.568;13.402;2022-12-08T12:31:39;3.90;99.90
782;DHT22;374;52.568;13.402;2022-12-08T12:34:26;4.10;99.90
782;DHT22;374;52.568;13.402;2022-12-08T12:36:55;4.00;99.90
782;DHT22;374;52.568;13.402;2022-12-08T12:39:27;4.00;99.90
782;DHT22;374;52.568;13.402;2022-12-08T12:41:59;4.00;99.90
782;DHT22;374;52.568;13.402;2022-12-08T12:44:45;4.10;99.90
782;DHT22;374;52.568;13.402;2022-12-08T12:47:11;4.00;99.90
782;DHT22;374;52.568;13.402;2022-12-08T12:54:34;4.00;99.90
782;DHT22;374;52.568;13.402;2022-12-08T13:02:26;4.20;99.90
782;DHT22;374;52.568;13.402;2022-12-08T13:04:59;4.10;99.90
782;DHT22;374;52.568;13.402;2022-12-08T13:10:18;4.10;99.90
782;DHT22;374;52.568;13.402;2022-12-08T13:12:45;4.10;99.90
782;DHT22;374;52.568;13.402;2022-12-08T13:15:25;4.00;99.90
782;DHT22;374;52.568;13.402;2022-12-08T13:17:57;4.20;99.90
782;DHT22;374;52.568;13.402;2022-12-08T13:20:24;4.00;99.90
782;DHT22;374;52.568;13.402;2022-12-08T13:25:44;4.10;99.90
782;DHT22;374;52.568;13.402;2022-12-08T13:28:23;4.10;99.90
782;DHT22;374;52.568;13.402;2022-12-08T13:30:51;4.20;99.90
782;DHT22;374;52.568;13.402;2022-12-08T13:33:21;4.30;99.90
782;DHT22;374;52.568;13.402;2022-12-08T13:35:54;4.20;99.90
782;DHT22;374;52.568;13.402;2022-12-08T13:38:25;4.30;99.90
782;DHT22;374;52.568;13.402;2022-12-08T13:40:53;4.30;99.90
782;DHT22;374;52.568;13.402;2022-12-08T13:43:37;4.00;99.90
782;DHT22;374;52.568;13.402;2022-12-08T13:46:06;4.20;99.90
782;DHT22;374;52.568;13.402;2022-12-08T13:48:49;4.10;99.90
782;DHT22;374;52.568;13.402;2022-12-08T13:51:19;4.30;99.90
782;DHT22;374;52.568;13.402;2022-12-08T13:54:03;4.00;99.90
782;DHT22;374;52.568;13.402;2022-12-08T13:56:36;4.20;99.90
782;DHT22;374;52.568;13.402;2022-12-08T14:01:56;4.20;99.90
782;DHT22;374;52.568;13.402;2022-12-08T14:04:23;4.10;99.90
782;DHT22;374;52.568;13.402;2022-12-08T14:06:56;4.00;99.90
782;DHT22;374;52.568;13.402;2022-12-08T14:09:26;4.00;99.90
782;DHT22;374;52.568;13.402;2022-12-08T14:14:44;4.00;99.90
782;DHT22;374;52.568;13.402;2022-12-08T14:17:12;4.00;99.90
782;DHT22;374;52.568;13.402;2022-12-08T14:19:41;4.20;99.90
782;DHT22;374;52.568;13.402;2022-12-08T14:22:11;4.20;99.90
782;DHT22;374;52.568;13.402;2022-12-08T14:24:38;4.20;99.90
782;DHT22;374;52.568;13.402;2022-12-08T14:27:06;4.00;99.90
782;DHT22;374;52.568;13.402;2022-12-08T14:32:26;4.00;99.90
782;DHT22;374;52.568;13.402;2022-12-08T14:34:52;4.20;99.90
782;DHT22;374;52.568;13.402;2022-12-08T14:37:18;4.20;99.90
782;DHT22;374;52.568;13.402;2022-12-08T14:39:44;4.10;99.90
782;DHT22;374;52.568;13.402;2022-12-08T14:42:22;4.00;99.90
782;DHT22;374;52.568;13.402;2022-12-08T14:45:03;3.90;99.90
782;DHT22;374;52.568;13.402;2022-12-08T14:47:30;4.20;99.90
782;DHT22;374;52.568;13.402;2022-12-08T14:49:56;3.90;99.90
782;DHT22;374;52.568;13.402;2022-12-08T14:52:22;4.20;99.90
782;DHT22;374;52.568;13.402;2022-12-08T14:54:49;3.90;99.90
782;DHT22;374;52.568;13.402;2022-12-08T14:57:15;3.90;99.90
782;DHT22;374;52.568;13.402;2022-12-08T14:59:42;4.20;99.90
782;DHT22;374;52.568;13.402;2022-12-08T15:05:09;3.90;99.90
782;DHT22;374;52.568;13.402;2022-12-08T15:15:48;3.90;99.90
782;DHT22;374;52.568;13.402;2022-12-08T15:18:17;4.10;99.90
782;DHT22;374;52.568;13.402;2022-12-08T15:20:50;3.90;99.90
782;DHT22;374;52.568;13.402;2022-12-08T15:23:28;4.10;99.90
782;DHT22;374;52.568;13.402;2022-12-08T15:25:56;3.90;99.90
782;DHT22;374;52.568;13.402;2022-12-08T15:28:23;3.90;99.90
782;DHT22;374;52.568;13.402;2022-12-08T15:30:50;4.00;99.90
782;DHT22;374;52.568;13.402;2022-12-08T15:33:15;3.90;99.90
782;DHT22;374;52.568;13.402;2022-12-08T15:35:41;4.10;99.90
782;DHT22;374;52.568;13.402;2022-12-08T15:38:16;4.10;99.90
782;DHT22;374;52.568;13.402;2022-12-08T15:40:41;3.90;99.90
782;DHT22;374;52.568;13.402;2022-12-08T15:43:09;4.00;99.90
782;DHT22;374;52.568;13.402;2022-12-08T15:45:35;4.10;99.90
782;DHT22;374;52.568;13.402;2022-12-08T15:48:00;3.80;99.90
782;DHT22;374;52.568;13.402;2022-12-08T15:50:26;4.10;99.90
782;DHT22;374;52.568;13.402;2022-12-08T15:52:51;3.90;99.90
782;DHT22;374;52.568;13.402;2022-12-08T15:55:19;3.90;99.90
782;DHT22;374;52.568;13.402;2022-12-08T15:57:51;4.00;99.90
782;DHT22;374;52.568;13.402;2022-12-08T16:02:51;3.80;99.90
782;DHT22;374;52.568;13.402;2022-12-08T16:05:17;4.00;99.90
782;DHT22;374;52.568;13.402;2022-12-08T16:07:43;4.00;99.90
782;DHT22;374;52.568;13.402;2022-12-08T16:10:22;4.10;99.90
782;DHT22;374;52.568;13.402;2022-12-08T16:12:51;4.00;99.90
782;DHT22;374;52.568;13.402;2022-12-08T16:15:37;3.80;99.90
782;DHT22;374;52.568;13.402;2022-12-08T16:18:04;3.90;99.90
782;DHT22;374;52.568;13.402;2022-12-08T16:20:29;4.00;99.90
782;DHT22;374;52.568;13.402;2022-12-08T16:22:55;4.00;99.90
782;DHT22;374;52.568;13.402;2022-12-08T16:25:21;4.00;99.90
782;DHT22;374;52.568;13.402;2022-12-08T16:27:49;4.00;99.90
782;DHT22;374;52.568;13.402;2022-12-08T16:30:16;3.80;99.90
782;DHT22;374;52.568;13.402;2022-12-08T16:32:41;3.80;99.90
782;DHT22;374;52.568;13.402;2022-12-08T16:35:09;3.70;99.90
782;DHT22;374;52.568;13.402;2022-12-08T16:37:34;3.90;99.90
782;DHT22;374;52.568;13.402;2022-12-08T16:40:00;3.80;99.90
782;DHT22;374;52.568;13.402;2022-12-08T16:42:30;3.80;99.90
782;DHT22;374;52.568;13.402;2022-12-08T16:45:28;3.70;99.90
782;DHT22;374;52.568;13.402;2022-12-08T16:47:59;3.80;99.90
782;DHT22;374;52.568;13.402;2022-12-08T16:50:25;3.90;99.90
782;DHT22;374;52.568;13.402;2022-12-08T16:53:09;3.80;99.90
782;DHT22;374;52.568;13.402;2022-12-08T16:55:35;3.80;99.90
782;DHT22;374;52.568;13.402;2022-12-08T16:58:01;3.80;99.90
782;DHT22;374;52.568;13.402;2022-12-08T17:00:29;3.60;99.90
782;DHT22;374;52.568;13.402;2022-12-08T17:02:55;3.60;99.90
782;DHT22;374;52.568;13.402;2022-12-08T17:05:24;3.70;99.90
782;DHT22;374;52.568;13.402;2022-12-08T17:07:51;3.60;99.90
782;DHT22;374;52.568;13.402;2022-12-08T17:10:21;3.80;99.90
782;DHT22;374;52.568;13.402;2022-12-08T17:12:47;3.60;99.90
782;DHT22;374;52.568;13.402;2022-12-08T17:15:15;3.70;99.90
782;DHT22;374;52.568;13.402;2022-12-08T17:18:03;3.60;99.90
782;DHT22;374;52.568;13.402;2022-12-08T17:20:39;3.70;99.90
782;DHT22;374;52.568;13.402;2022-12-08T17:23:04;3.50;99.90
782;DHT22;374;52.568;13.402;2022-12-08T17:25:30;3.60;99.90
782;DHT22;374;52.568;13.402;2022-12-08T17:27:55;3.40;99.90
782;DHT22;374;52.568;13.402;2022-12-08T17:30:21;3.40;99.90
782;DHT22;374;52.568;13.402;2022-12-08T17:32:55;3.50;99.90
782;DHT22;374;52.568;13.402;2022-12-08T17:35:24;3.50;99.90
782;DHT22;374;52.568;13.402;2022-12-08T17:37:49;3.60;99.90
782;DHT22;374;52.568;13.402;2022-12-08T17:40:15;3.40;99.90
782;DHT22;374;52.568;13.402;2022-12-08T17:42:40;3.40;99.90
782;DHT22;374;52.568;13.402;2022-12-08T17:45:07;3.60;99.90
782;DHT22;374;52.568;13.402;2022-12-08T17:47:32;3.60;99.90
782;DHT22;374;52.568;13.402;2022-12-08T17:49:58;3.40;99.90
782;DHT22;374;52.568;13.402;2022-12-08T17:52:25;3.40;99.90
782;DHT22;374;52.568;13.402;2022-12-08T17:54:50;3.30;99.90
782;DHT22;374;52.568;13.402;2022-12-08T17:57:16;3.50;99.90
782;DHT22;374;52.568;13.402;2022-12-08T17:59:41;3.20;99.90
782;DHT22;374;52.568;13.402;2022-12-08T18:02:09;3.30;99.90
782;DHT22;374;52.568;13.402;2022-12-08T18:04:36;3.40;99.90
782;DHT22;374;52.568;13.402;2022-12-08T18:07:01;3.40;99.90